CheckWX is a tool to help pilots better visualize weather data.  It is not intended as a substitute for an official pre-flight weather briefing.

20:32:14 UTC

RJOA TAF
Hiroshima Airport
Hiroshima, Japan
TAF RJOA 221706Z 2218/2400 03004KT 9999 FEW025 SCT040 BECMG 2301/2303 20006KT BECMG 2306/2309 32010KT

Mar-22@
18:00 UTC

Mar-22 @ 18:00 UTC

Mar-23@
01:00 UTC

Mar-23 @ 01:00 UTC

TAF RJOA 221706Z 2218/2400 03004KT 9999 FEW025 SCT040
Wind
  • 030° at 4 KTS
Cloud Levels
  • Few at 2,500' AGL
  • Scattered at 4,000' AGL

Mar-23@
01:00 UTC

Mar-23 @ 01:00 UTC

Mar-23@
06:00 UTC

Mar-23 @ 06:00 UTC

BECMG 2301/2303 20006KT

Becoming

Becoming Conditions expected by Sat, Mar 23, 2019 @ 03:00 UTC

Wind
  • 200° at 6 KTS
Cloud Levels
  • Few at 2,500' AGL
  • Scattered at 4,000' AGL

Mar-23@
06:00 UTC

Mar-23 @ 06:00 UTC

Mar-24@
00:00 UTC

Mar-24 @ 00:00 UTC

BECMG 2306/2309 32010KT

Becoming

Becoming Conditions expected by Sat, Mar 23, 2019 @ 09:00 UTC

Wind
  • 320° at 10 KTS
Cloud Levels
  • Few at 2,500' AGL
  • Scattered at 4,000' AGL